sensor_id;sensor_type;location;lat;lon;timestamp;temperature;humidity
2999;DHT22;1509;51.964;7.628;2023-03-20T00:01:12;9.50;99.90
2999;DHT22;1509;51.964;7.628;2023-03-20T00:03:38;9.50;99.90
2999;DHT22;1509;51.964;7.628;2023-03-20T00:06:04;9.50;99.90
2999;DHT22;1509;51.964;7.628;2023-03-20T00:08:30;9.60;99.90
2999;DHT22;1509;51.964;7.628;2023-03-20T00:10:57;9.70;99.90
2999;DHT22;1509;51.964;7.628;2023-03-20T00:13:26;9.70;99.90
2999;DHT22;1509;51.964;7.628;2023-03-20T00:15:55;9.70;99.90
2999;DHT22;1509;51.964;7.628;2023-03-20T00:18:22;9.80;99.90
2999;DHT22;1509;51.964;7.628;2023-03-20T00:20:49;9.70;99.90
2999;DHT22;1509;51.964;7.628;2023-03-20T00:23:16;9.70;99.90
2999;DHT22;1509;51.964;7.628;2023-03-20T00:25:43;9.60;99.90
2999;DHT22;1509;51.964;7.628;2023-03-20T00:31:19;9.50;99.90
2999;DHT22;1509;51.964;7.628;2023-03-20T00:33:48;9.60;99.90
2999;DHT22;1509;51.964;7.628;2023-03-20T00:36:14;9.70;99.90
2999;DHT22;1509;51.964;7.628;2023-03-20T00:38:40;9.60;99.90
2999;DHT22;1509;51.964;7.628;2023-03-20T00:41:25;9.60;99.90
2999;DHT22;1509;51.964;7.628;2023-03-20T00:44:29;9.60;99.90
2999;DHT22;1509;51.964;7.628;2023-03-20T00:49:13;9.60;99.90
2999;DHT22;1509;51.964;7.628;2023-03-20T00:51:39;9.40;99.90
2999;DHT22;1509;51.964;7.628;2023-03-20T00:54:11;9.60;99.90
2999;DHT22;1509;51.964;7.628;2023-03-20T00:56:44;9.60;99.90
2999;DHT22;1509;51.964;7.628;2023-03-20T00:59:20;9.60;99.90
2999;DHT22;1509;51.964;7.628;2023-03-20T01:01:50;9.60;99.90
2999;DHT22;1509;51.964;7.628;2023-03-20T01:04:17;9.70;99.90
2999;DHT22;1509;51.964;7.628;2023-03-20T01:06:46;9.90;99.90
2999;DHT22;1509;51.964;7.628;2023-03-20T01:09:12;9.60;99.90
2999;DHT22;1509;51.964;7.628;2023-03-20T01:11:38;9.60;99.90
2999;DHT22;1509;51.964;7.628;2023-03-20T01:14:09;9.70;99.90
2999;DHT22;1509;51.964;7.628;2023-03-20T01:16:37;9.60;99.90
2999;DHT22;1509;51.964;7.628;2023-03-20T01:19:03;9.30;99.90
2999;DHT22;1509;51.964;7.628;2023-03-20T01:21:29;9.60;99.90
2999;DHT22;1509;51.964;7.628;2023-03-20T01:23:54;9.50;99.90
2999;DHT22;1509;51.964;7.628;2023-03-20T01:26:40;9.50;99.90
2999;DHT22;1509;51.964;7.628;2023-03-20T01:29:25;9.50;99.90
2999;DHT22;1509;51.964;7.628;2023-03-20T01:31:53;9.40;99.90
2999;DHT22;1509;51.964;7.628;2023-03-20T01:34:19;9.40;99.90
2999;DHT22;1509;51.964;7.628;2023-03-20T01:36:53;9.40;99.90
2999;DHT22;1509;51.964;7.628;2023-03-20T01:39:35;9.40;99.90
2999;DHT22;1509;51.964;7.628;2023-03-20T01:42:02;9.40;99.90
2999;DHT22;1509;51.964;7.628;2023-03-20T01:44:33;9.40;99.90
2999;DHT22;1509;51.964;7.628;2023-03-20T01:47:01;9.40;99.90
2999;DHT22;1509;51.964;7.628;2023-03-20T01:51:54;9.40;99.90
2999;DHT22;1509;51.964;7.628;2023-03-20T01:54:26;9.60;99.90
2999;DHT22;1509;51.964;7.628;2023-03-20T01:56:59;9.40;99.90
2999;DHT22;1509;51.964;7.628;2023-03-20T01:59:32;9.30;99.90
2999;DHT22;1509;51.964;7.628;2023-03-20T02:01:59;9.30;99.90
2999;DHT22;1509;51.964;7.628;2023-03-20T02:04:31;9.30;99.90
2999;DHT22;1509;51.964;7.628;2023-03-20T02:06:58;9.30;99.90
2999;DHT22;1509;51.964;7.628;2023-03-20T02:09:25;9.40;99.90
2999;DHT22;1509;51.964;7.628;2023-03-20T02:11:51;9.30;99.90
2999;DHT22;1509;51.964;7.628;2023-03-20T02:14:19;9.30;99.90
2999;DHT22;1509;51.964;7.628;2023-03-20T02:16:45;9.30;99.90
2999;DHT22;1509;51.964;7.628;2023-03-20T02:19:28;9.30;99.90
2999;DHT22;1509;51.964;7.628;2023-03-20T02:22:12;9.60;99.90
2999;DHT22;1509;51.964;7.628;2023-03-20T02:33:33;9.10;99.90
2999;DHT22;1509;51.964;7.628;2023-03-20T02:39:01;9.50;99.90
2999;DHT22;1509;51.964;7.628;2023-03-20T02:49:58;9.10;99.90
2999;DHT22;1509;51.964;7.628;2023-03-20T02:55:41;9.10;99.90
2999;DHT22;1509;51.964;7.628;2023-03-20T02:58:14;9.10;99.90
2999;DHT22;1509;51.964;7.628;2023-03-20T03:00:56;9.00;99.90
2999;DHT22;1509;51.964;7.628;2023-03-20T03:03:49;9.00;99.90
2999;DHT22;1509;51.964;7.628;2023-03-20T03:06:33;9.00;99.90
2999;DHT22;1509;51.964;7.628;2023-03-20T03:09:22;9.00;99.90
2999;DHT22;1509;51.964;7.628;2023-03-20T03:11:54;9.00;99.90
2999;DHT22;1509;51.964;7.628;2023-03-20T03:16:59;9.00;99.90
2999;DHT22;1509;51.964;7.628;2023-03-20T03:19:27;9.40;99.90
2999;DHT22;1509;51.964;7.628;2023-03-20T03:21:56;9.00;99.90
2999;DHT22;1509;51.964;7.628;2023-03-20T03:26:55;9.00;99.90
2999;DHT22;1509;51.964;7.628;2023-03-20T03:29:22;9.00;99.90
2999;DHT22;1509;51.964;7.628;2023-03-20T03:31:50;9.00;99.90
2999;DHT22;1509;51.964;7.628;2023-03-20T03:34:18;9.00;99.90
2999;DHT22;1509;51.964;7.628;2023-03-20T03:47:56;8.90;99.90
2999;DHT22;1509;51.964;7.628;2023-03-20T03:50:32;8.80;99.90
2999;DHT22;1509;51.964;7.628;2023-03-20T03:53:03;8.80;99.90
2999;DHT22;1509;51.964;7.628;2023-03-20T03:55:58;9.20;99.90
2999;DHT22;1509;51.964;7.628;2023-03-20T03:58:32;8.90;99.90
2999;DHT22;1509;51.964;7.628;2023-03-20T04:00:59;8.80;99.90
2999;DHT22;1509;51.964;7.628;2023-03-20T04:03:39;9.00;99.90
2999;DHT22;1509;51.964;7.628;2023-03-20T04:06:07;8.70;99.90
2999;DHT22;1509;51.964;7.628;2023-03-20T04:08:34;8.80;99.90
2999;DHT22;1509;51.964;7.628;2023-03-20T04:11:00;8.80;99.90
2999;DHT22;1509;51.964;7.628;2023-03-20T04:13:29;8.90;99.90
2999;DHT22;1509;51.964;7.628;2023-03-20T04:15:54;8.90;99.90
2999;DHT22;1509;51.964;7.628;2023-03-20T04:18:20;8.90;99.90
2999;DHT22;1509;51.964;7.628;2023-03-20T04:20:48;8.80;99.90
2999;DHT22;1509;51.964;7.628;2023-03-20T04:23:14;8.80;99.90
2999;DHT22;1509;51.964;7.628;2023-03-20T04:25:40;8.90;99.90
2999;DHT22;1509;51.964;7.628;2023-03-20T04:28:06;8.80;99.90
2999;DHT22;1509;51.964;7.628;2023-03-20T04:30:32;8.80;99.90
2999;DHT22;1509;51.964;7.628;2023-03-20T04:32:57;8.80;99.90
2999;DHT22;1509;51.964;7.628;2023-03-20T04:35:23;8.50;99.90
2999;DHT22;1509;51.964;7.628;2023-03-20T04:37:49;8.60;99.90
2999;DHT22;1509;51.964;7.628;2023-03-20T04:40:15;9.10;99.90
2999;DHT22;1509;51.964;7.628;2023-03-20T04:42:41;8.80;99.90
2999;DHT22;1509;51.964;7.628;2023-03-20T04:45:08;8.70;99.90
2999;DHT22;1509;51.964;7.628;2023-03-20T04:47:33;8.70;99.90
2999;DHT22;1509;51.964;7.628;2023-03-20T04:49:59;8.70;99.90
2999;DHT22;1509;51.964;7.628;2023-03-20T04:52:25;8.70;99.90
2999;DHT22;1509;51.964;7.628;2023-03-20T04:54:50;8.70;99.90
2999;DHT22;1509;51.964;7.628;2023-03-20T04:57:16;8.60;99.90
2999;DHT22;1509;51.964;7.628;2023-03-20T04:59:42;8.70;99.90
2999;DHT22;1509;51.964;7.628;2023-03-20T05:02:07;8.70;99.90
2999;DHT22;1509;51.964;7.628;2023-03-20T05:04:33;8.70;99.90
2999;DHT22;1509;51.964;7.628;2023-03-20T05:06:59;8.70;99.90
2999;DHT22;1509;51.964;7.628;2023-03-20T05:09:25;8.80;99.90
2999;DHT22;1509;51.964;7.628;2023-03-20T05:11:50;8.90;99.90
2999;DHT22;1509;51.964;7.628;2023-03-20T05:14:16;8.60;99.90
2999;DHT22;1509;51.964;7.628;2023-03-20T05:16:42;8.70;99.90
2999;DHT22;1509;51.964;7.628;2023-03-20T05:19:08;8.50;99.90
2999;DHT22;1509;51.964;7.628;2023-03-20T05:21:33;8.70;99.90
2999;DHT22;1509;51.964;7.628;2023-03-20T05:23:59;8.60;99.90
2999;DHT22;1509;51.964;7.628;2023-03-20T05:26:25;8.60;99.90
2999;DHT22;1509;51.964;7.628;2023-03-20T05:28:51;8.70;99.90
2999;DHT22;1509;51.964;7.628;2023-03-20T05:31:17;8.70;99.90
2999;DHT22;1509;51.964;7.628;2023-03-20T05:33:49;8.70;99.90
2999;DHT22;1509;51.964;7.628;2023-03-20T05:36:14;8.60;99.90
2999;DHT22;1509;51.964;7.628;2023-03-20T05:38:40;8.60;99.90
2999;DHT22;1509;51.964;7.628;2023-03-20T05:41:06;8.70;99.90
2999;DHT22;1509;51.964;7.628;2023-03-20T05:43:34;8.60;99.90
2999;DHT22;1509;51.964;7.628;2023-03-20T05:46:00;8.60;99.90
2999;DHT22;1509;51.964;7.628;2023-03-20T05:48:26;8.60;99.90
2999;DHT22;1509;51.964;7.628;2023-03-20T05:50:52;8.60;99.90
2999;DHT22;1509;51.964;7.628;2023-03-20T05:53:17;8.60;99.90
2999;DHT22;1509;51.964;7.628;2023-03-20T05:55:43;8.60;99.90
2999;DHT22;1509;51.964;7.628;2023-03-20T05:58:10;8.60;99.90
2999;DHT22;1509;51.964;7.628;2023-03-20T06:00:37;8.60;99.90
2999;DHT22;1509;51.964;7.628;2023-03-20T06:03:03;8.60;99.90
2999;DHT22;1509;51.964;7.628;2023-03-20T06:05:32;8.60;99.90
2999;DHT22;1509;51.964;7.628;2023-03-20T06:07:58;8.60;99.90
2999;DHT22;1509;51.964;7.628;2023-03-20T06:10:26;8.60;99.90
2999;DHT22;1509;51.964;7.628;2023-03-20T06:12:54;8.60;99.90
2999;DHT22;1509;51.964;7.628;2023-03-20T06:15:21;8.50;99.90
2999;DHT22;1509;51.964;7.628;2023-03-20T06:17:49;8.60;99.90
2999;DHT22;1509;51.964;7.628;2023-03-20T06:22:51;8.50;99.90
2999;DHT22;1509;51.964;7.628;2023-03-20T06:25:18;8.50;99.90
2999;DHT22;1509;51.964;7.628;2023-03-20T06:27:45;8.50;99.90
2999;DHT22;1509;51.964;7.628;2023-03-20T06:30:17;8.50;99.90
2999;DHT22;1509;51.964;7.628;2023-03-20T06:32:43;8.40;99.90
2999;DHT22;1509;51.964;7.628;2023-03-20T06:35:10;8.50;99.90
2999;DHT22;1509;51.964;7.628;2023-03-20T06:37:36;8.40;99.90
2999;DHT22;1509;51.964;7.628;2023-03-20T06:40:03;8.50;99.90
2999;DHT22;1509;51.964;7.628;2023-03-20T06:42:29;8.50;99.90
2999;DHT22;1509;51.964;7.628;2023-03-20T06:47:37;8.50;99.90
2999;DHT22;1509;51.964;7.628;2023-03-20T06:50:20;8.50;99.90
2999;DHT22;1509;51.964;7.628;2023-03-20T06:52:49;8.50;99.90
2999;DHT22;1509;51.964;7.628;2023-03-20T06:55:18;8.50;99.90
2999;DHT22;1509;51.964;7.628;2023-03-20T07:00:25;8.50;99.90
2999;DHT22;1509;51.964;7.628;2023-03-20T07:02:56;8.50;99.90
2999;DHT22;1509;51.964;7.628;2023-03-20T07:05:25;8.20;99.90
2999;DHT22;1509;51.964;7.628;2023-03-20T07:07:54;8.40;99.90
2999;DHT22;1509;51.964;7.628;2023-03-20T07:10:28;8.30;99.90
2999;DHT22;1509;51.964;7.628;2023-03-20T07:12:56;8.60;99.90
2999;DHT22;1509;51.964;7.628;2023-03-20T07:15:25;8.70;99.90
2999;DHT22;1509;51.964;7.628;2023-03-20T07:17:52;8.60;99.90
2999;DHT22;1509;51.964;7.628;2023-03-20T07:20:18;8.60;99.90
2999;DHT22;1509;51.964;7.628;2023-03-20T07:22:50;8.50;99.90
2999;DHT22;1509;51.964;7.628;2023-03-20T07:25:16;8.70;99.90
2999;DHT22;1509;51.964;7.628;2023-03-20T07:27:46;8.70;99.90
2999;DHT22;1509;51.964;7.628;2023-03-20T07:37:58;8.80;99.90
2999;DHT22;1509;51.964;7.628;2023-03-20T07:48:09;8.80;99.90
2999;DHT22;1509;51.964;7.628;2023-03-20T07:50:42;8.80;99.90
2999;DHT22;1509;51.964;7.628;2023-03-20T07:53:29;9.10;99.90
2999;DHT22;1509;51.964;7.628;2023-03-20T08:01:13;8.90;99.90
2999;DHT22;1509;51.964;7.628;2023-03-20T08:03:48;8.90;99.90
2999;DHT22;1509;51.964;7.628;2023-03-20T08:06:33;8.90;99.90
2999;DHT22;1509;51.964;7.628;2023-03-20T08:08:59;9.00;99.90
2999;DHT22;1509;51.964;7.628;2023-03-20T08:11:25;9.10;99.90
2999;DHT22;1509;51.964;7.628;2023-03-20T08:13:51;8.80;99.90
2999;DHT22;1509;51.964;7.628;2023-03-20T08:16:17;9.00;99.90
2999;DHT22;1509;51.964;7.628;2023-03-20T08:18:43;9.10;99.90
2999;DHT22;1509;51.964;7.628;2023-03-20T08:21:16;9.20;99.90
2999;DHT22;1509;51.964;7.628;2023-03-20T08:23:42;9.20;99.90
2999;DHT22;1509;51.964;7.628;2023-03-20T08:33:57;9.50;99.90
2999;DHT22;1509;51.964;7.628;2023-03-20T08:36:27;9.30;99.90
2999;DHT22;1509;51.964;7.628;2023-03-20T08:44:06;10.00;99.90
2999;DHT22;1509;51.964;7.628;2023-03-20T08:46:32;10.10;99.90
2999;DHT22;1509;51.964;7.628;2023-03-20T08:51:42;10.30;99.90
2999;DHT22;1509;51.964;7.628;2023-03-20T08:54:10;10.50;99.90
2999;DHT22;1509;51.964;7.628;2023-03-20T08:59:20;10.60;99.90
2999;DHT22;1509;51.964;7.628;2023-03-20T09:04:25;10.50;99.90
2999;DHT22;1509;51.964;7.628;2023-03-20T09:06:52;10.40;99.90
2999;DHT22;1509;51.964;7.628;2023-03-20T09:09:21;10.30;99.90
2999;DHT22;1509;51.964;7.628;2023-03-20T09:11:56;10.50;99.90
2999;DHT22;1509;51.964;7.628;2023-03-20T09:14:26;10.60;99.90
2999;DHT22;1509;51.964;7.628;2023-03-20T09:16:52;10.60;99.90
2999;DHT22;1509;51.964;7.628;2023-03-20T09:19:18;10.70;99.90
2999;DHT22;1509;51.964;7.628;2023-03-20T09:21:44;10.90;99.90
2999;DHT22;1509;51.964;7.628;2023-03-20T09:24:10;11.00;99.90
2999;DHT22;1509;51.964;7.628;2023-03-20T09:26:39;11.30;99.90
2999;DHT22;1509;51.964;7.628;2023-03-20T09:29:05;11.00;99.90
2999;DHT22;1509;51.964;7.628;2023-03-20T09:31:31;11.00;99.90
2999;DHT22;1509;51.964;7.628;2023-03-20T09:33:56;10.90;99.90
2999;DHT22;1509;51.964;7.628;2023-03-20T09:36:25;10.80;99.90
2999;DHT22;1509;51.964;7.628;2023-03-20T09:38:50;10.70;99.90
2999;DHT22;1509;51.964;7.628;2023-03-20T09:41:20;10.60;99.90
2999;DHT22;1509;51.964;7.628;2023-03-20T09:52:01;10.30;99.90
2999;DHT22;1509;51.964;7.628;2023-03-20T09:54:43;10.40;99.90
2999;DHT22;1509;51.964;7.628;2023-03-20T10:00:12;10.30;99.90
2999;DHT22;1509;51.964;7.628;2023-03-20T10:02:49;10.30;99.90
2999;DHT22;1509;51.964;7.628;2023-03-20T10:05:26;10.30;99.90
2999;DHT22;1509;51.964;7.628;2023-03-20T10:08:01;10.40;99.90
2999;DHT22;1509;51.964;7.628;2023-03-20T10:10:51;10.50;99.90
2999;DHT22;1509;51.964;7.628;2023-03-20T10:18:41;10.50;99.90
2999;DHT22;1509;51.964;7.628;2023-03-20T10:21:29;10.40;99.90
2999;DHT22;1509;51.964;7.628;2023-03-20T10:24:03;10.50;99.90
2999;DHT22;1509;51.964;7.628;2023-03-20T10:26:33;10.60;99.90
2999;DHT22;1509;51.964;7.628;2023-03-20T10:32:37;10.40;99.90
2999;DHT22;1509;51.964;7.628;2023-03-20T10:35:22;10.50;99.90
2999;DHT22;1509;51.964;7.628;2023-03-20T10:41:06;10.70;99.90
2999;DHT22;1509;51.964;7.628;2023-03-20T10:43:35;10.70;99.90
2999;DHT22;1509;51.964;7.628;2023-03-20T10:46:07;10.60;99.90
2999;DHT22;1509;51.964;7.628;2023-03-20T10:49:06;11.00;99.90
2999;DHT22;1509;51.964;7.628;2023-03-20T10:51:44;11.40;99.90
2999;DHT22;1509;51.964;7.628;2023-03-20T10:54:35;11.90;99.90
2999;DHT22;1509;51.964;7.628;2023-03-20T10:57:04;11.90;99.90
2999;DHT22;1509;51.964;7.628;2023-03-20T11:02:40;11.60;99.90
2999;DHT22;1509;51.964;7.628;2023-03-20T11:05:23;11.30;99.90
2999;DHT22;1509;51.964;7.628;2023-03-20T11:08:13;11.30;99.90
2999;DHT22;1509;51.964;7.628;2023-03-20T11:10:41;11.30;99.90
2999;DHT22;1509;51.964;7.628;2023-03-20T11:13:15;11.30;99.90
2999;DHT22;1509;51.964;7.628;2023-03-20T11:15:46;11.40;99.90
2999;DHT22;1509;51.964;7.628;2023-03-20T11:18:12;11.60;99.90
2999;DHT22;1509;51.964;7.628;2023-03-20T11:20:52;11.60;99.90
2999;DHT22;1509;51.964;7.628;2023-03-20T11:23:26;11.90;99.90
2999;DHT22;1509;51.964;7.628;2023-03-20T11:26:00;12.00;99.90
2999;DHT22;1509;51.964;7.628;2023-03-20T11:28:31;11.60;99.90
2999;DHT22;1509;51.964;7.628;2023-03-20T11:31:04;11.30;99.90
2999;DHT22;1509;51.964;7.628;2023-03-20T11:33:36;11.40;99.90
2999;DHT22;1509;51.964;7.628;2023-03-20T11:36:19;11.40;99.90
2999;DHT22;1509;51.964;7.628;2023-03-20T11:38:45;11.20;99.90
2999;DHT22;1509;51.964;7.628;2023-03-20T11:41:26;11.10;99.90
2999;DHT22;1509;51.964;7.628;2023-03-20T11:43:53;11.40;99.90
2999;DHT22;1509;51.964;7.628;2023-03-20T11:46:22;11.40;99.90
2999;DHT22;1509;51.964;7.628;2023-03-20T11:49:30;11.40;99.90
2999;DHT22;1509;51.964;7.628;2023-03-20T11:52:09;11.40;99.90
2999;DHT22;1509;51.964;7.628;2023-03-20T11:54:36;11.50;99.90
2999;DHT22;1509;51.964;7.628;2023-03-20T11:57:02;11.40;99.90
2999;DHT22;1509;51.964;7.628;2023-03-20T11:59:32;11.20;99.90
2999;DHT22;1509;51.964;7.628;2023-03-20T12:02:02;11.10;99.90
2999;DHT22;1509;51.964;7.628;2023-03-20T12:04:58;11.00;99.90
2999;DHT22;1509;51.964;7.628;2023-03-20T12:07:29;10.80;99.90
2999;DHT22;1509;51.964;7.628;2023-03-20T12:16:41;11.00;99.90
2999;DHT22;1509;51.964;7.628;2023-03-20T12:19:15;11.00;99.90
2999;DHT22;1509;51.964;7.628;2023-03-20T12:21:47;11.20;99.90
2999;DHT22;1509;51.964;7.628;2023-03-20T12:24:32;11.20;99.90
2999;DHT22;1509;51.964;7.628;2023-03-20T12:30:05;11.30;99.90
2999;DHT22;1509;51.964;7.628;2023-03-20T12:33:03;11.40;99.90
2999;DHT22;1509;51.964;7.628;2023-03-20T12:35:35;11.10;99.90
2999;DHT22;1509;51.964;7.628;2023-03-20T12:38:02;11.20;99.90
2999;DHT22;1509;51.964;7.628;2023-03-20T12:40:50;11.30;99.90
2999;DHT22;1509;51.964;7.628;2023-03-20T12:43:24;11.10;99.90
2999;DHT22;1509;51.964;7.628;2023-03-20T12:46:22;10.90;99.90
2999;DHT22;1509;51.964;7.628;2023-03-20T12:56:53;10.60;99.90
2999;DHT22;1509;51.964;7.628;2023-03-20T13:04:58;10.30;99.90
2999;DHT22;1509;51.964;7.628;2023-03-20T13:10:20;10.10;99.90
2999;DHT22;1509;51.964;7.628;2023-03-20T13:12:56;10.20;99.90
2999;DHT22;1509;51.964;7.628;2023-03-20T13:20:55;9.80;99.90
2999;DHT22;1509;51.964;7.628;2023-03-20T13:23:51;10.10;99.90
2999;DHT22;1509;51.964;7.628;2023-03-20T13:26:32;9.40;99.90
2999;DHT22;1509;51.964;7.628;2023-03-20T13:37:40;9.60;99.90
2999;DHT22;1509;51.964;7.628;2023-03-20T13:45:36;9.40;99.90
2999;DHT22;1509;51.964;7.628;2023-03-20T13:48:32;9.50;99.90
2999;DHT22;1509;51.964;7.628;2023-03-20T13:56:36;9.60;99.90
2999;DHT22;1509;51.964;7.628;2023-03-20T14:05:24;9.70;99.90
2999;DHT22;1509;51.964;7.628;2023-03-20T14:07:56;9.70;99.90
2999;DHT22;1509;51.964;7.628;2023-03-20T14:13:02;9.90;99.90
2999;DHT22;1509;51.964;7.628;2023-03-20T14:15:36;9.70;99.90
2999;DHT22;1509;51.964;7.628;2023-03-20T14:18:12;9.70;99.90
2999;DHT22;1509;51.964;7.628;2023-03-20T14:20:42;9.60;99.90
2999;DHT22;1509;51.964;7.628;2023-03-20T14:23:19;9.40;99.90
2999;DHT22;1509;51.964;7.628;2023-03-20T14:25:53;9.70;99.90
2999;DHT22;1509;51.964;7.628;2023-03-20T14:30:46;9.60;99.90
2999;DHT22;1509;51.964;7.628;2023-03-20T14:35:49;9.80;99.90
2999;DHT22;1509;51.964;7.628;2023-03-20T14:38:48;9.90;99.90
2999;DHT22;1509;51.964;7.628;2023-03-20T14:41:23;10.00;99.90
2999;DHT22;1509;51.964;7.628;2023-03-20T14:44:14;10.00;99.90
2999;DHT22;1509;51.964;7.628;2023-03-20T14:57:44;9.80;99.90
2999;DHT22;1509;51.964;7.628;2023-03-20T15:03:15;9.70;99.90
2999;DHT22;1509;51.964;7.628;2023-03-20T15:05:43;9.80;99.90
2999;DHT22;1509;51.964;7.628;2023-03-20T15:08:44;9.80;99.90
2999;DHT22;1509;51.964;7.628;2023-03-20T15:11:06;9.80;99.90
2999;DHT22;1509;51.964;7.628;2023-03-20T15:13:36;9.80;99.90
2999;DHT22;1509;51.964;7.628;2023-03-20T15:16:09;10.00;99.90
2999;DHT22;1509;51.964;7.628;2023-03-20T15:18:38;9.80;99.90
2999;DHT22;1509;51.964;7.628;2023-03-20T15:21:12;9.80;99.90
2999;DHT22;1509;51.964;7.628;2023-03-20T15:23:43;9.60;99.90
2999;DHT22;1509;51.964;7.628;2023-03-20T15:26:10;9.60;99.90
2999;DHT22;1509;51.964;7.628;2023-03-20T15:28:37;9.60;99.90
2999;DHT22;1509;51.964;7.628;2023-03-20T15:31:03;9.60;99.90
2999;DHT22;1509;51.964;7.628;2023-03-20T15:33:33;9.60;99.90
2999;DHT22;1509;51.964;7.628;2023-03-20T15:36:08;9.40;99.90
2999;DHT22;1509;51.964;7.628;2023-03-20T15:38:34;9.40;99.90
2999;DHT22;1509;51.964;7.628;2023-03-20T15:41:07;9.40;99.90
2999;DHT22;1509;51.964;7.628;2023-03-20T15:43:33;9.10;99.90
2999;DHT22;1509;51.964;7.628;2023-03-20T15:46:03;8.90;99.90
2999;DHT22;1509;51.964;7.628;2023-03-20T15:48:29;8.70;99.90
2999;DHT22;1509;51.964;7.628;2023-03-20T15:50:59;8.70;99.90
2999;DHT22;1509;51.964;7.628;2023-03-20T15:53:35;8.70;99.90
2999;DHT22;1509;51.964;7.628;2023-03-20T15:56:06;8.60;99.90
2999;DHT22;1509;51.964;7.628;2023-03-20T15:58:33;8.60;99.90
2999;DHT22;1509;51.964;7.628;2023-03-20T16:01:01;8.50;99.90
2999;DHT22;1509;51.964;7.628;2023-03-20T16:03:28;8.40;99.90
2999;DHT22;1509;51.964;7.628;2023-03-20T16:05:58;8.40;99.90
2999;DHT22;1509;51.964;7.628;2023-03-20T16:08:28;8.20;99.90
2999;DHT22;1509;51.964;7.628;2023-03-20T16:11:10;8.00;99.90
2999;DHT22;1509;51.964;7.628;2023-03-20T16:13:40;8.20;99.90
2999;DHT22;1509;51.964;7.628;2023-03-20T16:16:09;8.10;99.90
2999;DHT22;1509;51.964;7.628;2023-03-20T16:18:37;8.10;99.90
2999;DHT22;1509;51.964;7.628;2023-03-20T16:21:09;8.20;99.90
2999;DHT22;1509;51.964;7.628;2023-03-20T16:23:39;8.10;99.90
2999;DHT22;1509;51.964;7.628;2023-03-20T16:26:07;8.10;99.90
2999;DHT22;1509;51.964;7.628;2023-03-20T16:28:36;8.10;99.90
2999;DHT22;1509;51.964;7.628;2023-03-20T16:31:12;8.10;99.90
2999;DHT22;1509;51.964;7.628;2023-03-20T16:33:40;8.10;99.90
2999;DHT22;1509;51.964;7.628;2023-03-20T16:36:07;8.10;99.90
2999;DHT22;1509;51.964;7.628;2023-03-20T16:38:34;8.00;99.90
2999;DHT22;1509;51.964;7.628;2023-03-20T16:41:30;8.00;99.90
2999;DHT22;1509;51.964;7.628;2023-03-20T16:43:58;8.00;99.90
2999;DHT22;1509;51.964;7.628;2023-03-20T16:46:26;8.00;99.90
2999;DHT22;1509;51.964;7.628;2023-03-20T16:52:03;8.00;99.90
2999;DHT22;1509;51.964;7.628;2023-03-20T16:54:33;8.00;99.90
2999;DHT22;1509;51.964;7.628;2023-03-20T16:57:00;8.00;99.90
2999;DHT22;1509;51.964;7.628;2023-03-20T16:59:28;8.00;99.90
2999;DHT22;1509;51.964;7.628;2023-03-20T17:01:58;7.90;99.90
2999;DHT22;1509;51.964;7.628;2023-03-20T17:04:35;7.90;99.90
2999;DHT22;1509;51.964;7.628;2023-03-20T17:07:07;7.90;99.90
2999;DHT22;1509;51.964;7.628;2023-03-20T17:09:34;7.90;99.90
2999;DHT22;1509;51.964;7.628;2023-03-20T17:12:13;7.80;99.90
2999;DHT22;1509;51.964;7.628;2023-03-20T17:14:40;7.90;99.90
2999;DHT22;1509;51.964;7.628;2023-03-20T17:17:13;7.90;99.90
2999;DHT22;1509;51.964;7.628;2023-03-20T17:19:40;7.90;99.90
2999;DHT22;1509;51.964;7.628;2023-03-20T17:22:17;7.70;99.90
2999;DHT22;1509;51.964;7.628;2023-03-20T17:24:45;7.80;99.90
2999;DHT22;1509;51.964;7.628;2023-03-20T17:27:12;7.80;99.90
2999;DHT22;1509;51.964;7.628;2023-03-20T17:29:39;7.80;99.90
2999;DHT22;1509;51.964;7.628;2023-03-20T17:32:18;7.80;99.90
2999;DHT22;1509;51.964;7.628;2023-03-20T17:34:44;7.80;99.90
2999;DHT22;1509;51.964;7.628;2023-03-20T17:37:36;7.80;99.90
2999;DHT22;1509;51.964;7.628;2023-03-20T17:40:02;7.80;99.90
2999;DHT22;1509;51.964;7.628;2023-03-20T17:42:28;7.80;99.90
2999;DHT22;1509;51.964;7.628;2023-03-20T17:44:57;8.00;99.90
2999;DHT22;1509;51.964;7.628;2023-03-20T17:47:24;7.80;99.90
2999;DHT22;1509;51.964;7.628;2023-03-20T17:49:54;7.80;99.90
2999;DHT22;1509;51.964;7.628;2023-03-20T17:52:25;7.80;99.90
2999;DHT22;1509;51.964;7.628;2023-03-20T17:54:51;8.10;99.90
2999;DHT22;1509;51.964;7.628;2023-03-20T17:57:31;7.80;99.90
2999;DHT22;1509;51.964;7.628;2023-03-20T17:59:58;7.80;99.90
2999;DHT22;1509;51.964;7.628;2023-03-20T18:02:24;7.80;99.90
2999;DHT22;1509;51.964;7.628;2023-03-20T18:04:50;7.80;99.90
2999;DHT22;1509;51.964;7.628;2023-03-20T18:07:16;7.80;99.90
2999;DHT22;1509;51.964;7.628;2023-03-20T18:09:43;8.00;99.90
2999;DHT22;1509;51.964;7.628;2023-03-20T18:12:16;8.10;99.90
2999;DHT22;1509;51.964;7.628;2023-03-20T18:14:44;7.90;99.90
2999;DHT22;1509;51.964;7.628;2023-03-20T18:17:14;7.80;99.90
2999;DHT22;1509;51.964;7.628;2023-03-20T18:19:40;7.80;99.90
2999;DHT22;1509;51.964;7.628;2023-03-20T18:22:06;7.70;99.90
2999;DHT22;1509;51.964;7.628;2023-03-20T18:24:32;7.80;99.90
2999;DHT22;1509;51.964;7.628;2023-03-20T18:26:58;7.80;99.90
2999;DHT22;1509;51.964;7.628;2023-03-20T18:29:24;7.90;99.90
2999;DHT22;1509;51.964;7.628;2023-03-20T18:31:53;8.00;99.90
2999;DHT22;1509;51.964;7.628;2023-03-20T18:34:18;7.90;99.90
2999;DHT22;1509;51.964;7.628;2023-03-20T18:36:44;7.90;99.90
2999;DHT22;1509;51.964;7.628;2023-03-20T18:39:18;7.90;99.90
2999;DHT22;1509;51.964;7.628;2023-03-20T18:41:45;7.90;99.90
2999;DHT22;1509;51.964;7.628;2023-03-20T18:44:11;7.90;99.90
2999;DHT22;1509;51.964;7.628;2023-03-20T18:46:36;7.90;99.90
2999;DHT22;1509;51.964;7.628;2023-03-20T18:49:02;8.00;99.90
2999;DHT22;1509;51.964;7.628;2023-03-20T18:51:27;8.00;99.90
2999;DHT22;1509;51.964;7.628;2023-03-20T18:53:53;8.00;99.90
2999;DHT22;1509;51.964;7.628;2023-03-20T18:56:21;8.20;99.90
2999;DHT22;1509;51.964;7.628;2023-03-20T18:58:47;8.00;99.90
2999;DHT22;1509;51.964;7.628;2023-03-20T19:01:14;8.00;99.90
2999;DHT22;1509;51.964;7.628;2023-03-20T19:03:41;8.10;99.90
2999;DHT22;1509;51.964;7.628;2023-03-20T19:06:19;8.10;99.90
2999;DHT22;1509;51.964;7.628;2023-03-20T19:08:46;8.10;99.90
2999;DHT22;1509;51.964;7.628;2023-03-20T19:11:12;8.00;99.90
2999;DHT22;1509;51.964;7.628;2023-03-20T19:13:42;8.50;99.90
2999;DHT22;1509;51.964;7.628;2023-03-20T19:16:27;8.20;99.90
2999;DHT22;1509;51.964;7.628;2023-03-20T19:18:54;8.20;99.90
2999;DHT22;1509;51.964;7.628;2023-03-20T19:21:21;8.20;99.90
2999;DHT22;1509;51.964;7.628;2023-03-20T19:23:54;8.30;99.90
2999;DHT22;1509;51.964;7.628;2023-03-20T19:26:22;8.30;99.90
2999;DHT22;1509;51.964;7.628;2023-03-20T19:28:52;8.50;99.90
2999;DHT22;1509;51.964;7.628;2023-03-20T19:31:18;8.30;99.90
2999;DHT22;1509;51.964;7.628;2023-03-20T19:33:43;8.30;99.90
2999;DHT22;1509;51.964;7.628;2023-03-20T19:36:35;8.40;99.90
2999;DHT22;1509;51.964;7.628;2023-03-20T19:39:04;8.40;99.90
2999;DHT22;1509;51.964;7.628;2023-03-20T19:41:30;8.40;99.90
2999;DHT22;1509;51.964;7.628;2023-03-20T19:43:56;8.40;99.90
2999;DHT22;1509;51.964;7.628;2023-03-20T19:46:23;8.40;99.90
2999;DHT22;1509;51.964;7.628;2023-03-20T19:48:52;8.40;99.90
2999;DHT22;1509;51.964;7.628;2023-03-20T19:51:20;8.50;99.90
2999;DHT22;1509;51.964;7.628;2023-03-20T19:53:46;8.50;99.90
2999;DHT22;1509;51.964;7.628;2023-03-20T19:56:13;8.50;99.90
2999;DHT22;1509;51.964;7.628;2023-03-20T19:58:40;8.50;99.90
2999;DHT22;1509;51.964;7.628;2023-03-20T20:01:07;8.50;99.90
2999;DHT22;1509;51.964;7.628;2023-03-20T20:03:33;8.50;99.90